Time;durP1;ratioP1;P1;durP2;ratioP2;P2;SDS_P1;SDS_P2;PMS_P1;PMS_P2;Temp;Humidity;BMP_temperature;BMP_pressure;BME280_temperature;BME280_humidity;BME280_pressure;Samples;Min_cycle;Max_cycle;Signal;HPM_P1;HPM_P2
2022/02/18 00:00:42;;;;;;;23.33;4.57;;;7.30;94.80;;;;;;5007174;28;20496;-57
2022/02/18 00:03:08;;;;;;;16.17;3.40;;;7.30;94.70;;;;;;5002710;28;20501;-57
2022/02/18 00:05:34;;;;;;;16.17;3.17;;;7.30;94.70;;;;;;5000204;28;20994;-58
2022/02/18 00:08:00;;;;;;;17.23;3.70;;;7.30;94.50;;;;;;4997856;28;20470;-57
2022/02/18 00:10:26;;;;;;;16.40;3.43;;;7.40;94.20;;;;;;5006878;28;20518;-58
2022/02/18 00:12:52;;;;;;;7.53;2.67;;;7.40;94.30;;;;;;5010631;28;20264;-57
2022/02/18 00:15:17;;;;;;;17.97;4.00;;;7.40;94.20;;;;;;5008233;28;20487;-58
2022/02/18 00:17:43;;;;;;;10.53;3.40;;;7.40;94.10;;;;;;4999234;28;20173;-57
2022/02/18 00:20:10;;;;;;;15.10;3.60;;;7.40;94.00;;;;;;5005983;28;20225;-57
2022/02/18 00:22:36;;;;;;;14.03;3.20;;;7.40;93.90;;;;;;5015319;28;20542;-58
2022/02/18 00:25:03;;;;;;;12.53;3.60;;;7.40;93.90;;;;;;5004150;28;20649;-58
2022/02/18 00:27:28;;;;;;;15.17;3.00;;;7.40;94.00;;;;;;5004374;28;20176;-58
2022/02/18 00:29:55;;;;;;;17.43;3.23;;;7.40;94.10;;;;;;5006479;28;20739;-58
2022/02/18 00:32:21;;;;;;;22.60;3.40;;;7.40;94.20;;;;;;5006621;28;20184;-57
2022/02/18 00:34:46;;;;;;;20.10;3.70;;;7.40;94.30;;;;;;5005327;28;20490;-57
2022/02/18 00:37:12;;;;;;;20.10;3.50;;;7.40;94.50;;;;;;5007361;28;20701;-58
2022/02/18 00:39:38;;;;;;;22.33;4.07;;;7.40;94.80;;;;;;5006056;28;20188;-57
2022/02/18 00:42:03;;;;;;;23.73;4.43;;;7.40;95.20;;;;;;5009355;28;20664;-58
2022/02/18 00:44:29;;;;;;;12.50;3.87;;;7.40;95.40;;;;;;5002463;28;20680;-58
2022/02/18 00:46:55;;;;;;;15.60;3.63;;;7.40;95.40;;;;;;5008003;28;20173;-58
2022/02/18 00:49:21;;;;;;;17.77;3.80;;;7.40;95.50;;;;;;5005697;28;20169;-58
2022/02/18 00:51:47;;;;;;;22.13;3.43;;;7.40;95.60;;;;;;5005791;28;20458;-58
2022/02/18 00:54:13;;;;;;;13.53;3.43;;;7.40;95.70;;;;;;5010901;28;20784;-57
2022/02/18 00:56:40;;;;;;;21.33;4.37;;;7.40;95.90;;;;;;5007881;28;20428;-58
2022/02/18 00:59:09;;;;;;;13.47;3.67;;;7.40;96.10;;;;;;5006358;28;20430;-57
2022/02/18 01:01:35;;;;;;;18.40;4.33;;;7.40;96.20;;;;;;5006685;28;20498;-58
2022/02/18 01:04:02;;;;;;;15.40;3.17;;;7.40;96.30;;;;;;4999949;28;20553;-58
2022/02/18 01:06:28;;;;;;;18.33;3.57;;;7.40;96.30;;;;;;5007416;28;20457;-58
2022/02/18 01:08:54;;;;;;;11.63;3.40;;;7.40;96.40;;;;;;5006458;28;20427;-57
2022/02/18 01:11:21;;;;;;;16.90;3.10;;;7.40;96.30;;;;;;5006204;28;20458;-57
2022/02/18 01:13:47;;;;;;;11.10;3.20;;;7.40;96.30;;;;;;5006535;28;20419;-57
2022/02/18 01:16:14;;;;;;;20.10;4.23;;;7.40;96.40;;;;;;5006710;28;20473;-57
2022/02/18 01:18:40;;;;;;;14.70;3.30;;;7.40;96.50;;;;;;5006148;28;20215;-59
2022/02/18 01:21:06;;;;;;;21.10;3.70;;;7.40;96.70;;;;;;5001237;28;20442;-58
2022/02/18 01:23:31;;;;;;;18.00;4.27;;;7.40;96.80;;;;;;5005233;28;20196;-57
2022/02/18 01:25:57;;;;;;;11.40;2.90;;;7.40;96.90;;;;;;5003163;28;20164;-57
2022/02/18 01:28:23;;;;;;;17.30;3.57;;;7.40;97.00;;;;;;5002293;28;20184;-59
2022/02/18 01:30:48;;;;;;;18.33;3.70;;;7.40;97.10;;;;;;5004172;28;20697;-57
2022/02/18 01:33:14;;;;;;;16.50;3.73;;;7.40;97.20;;;;;;5007121;28;20599;-58
2022/02/18 01:35:40;;;;;;;13.77;3.30;;;7.30;97.20;;;;;;5005952;28;20203;-58
2022/02/18 01:38:06;;;;;;;11.93;3.00;;;7.30;97.40;;;;;;4987616;28;20231;-57
2022/02/18 01:40:33;;;;;;;9.00;3.30;;;7.30;97.40;;;;;;5005568;28;20183;-58
2022/02/18 01:42:59;;;;;;;15.67;3.40;;;7.30;97.40;;;;;;5007987;28;20589;-58
2022/02/18 01:45:26;;;;;;;15.27;3.50;;;7.30;97.50;;;;;;5009926;28;20935;-58
2022/02/18 01:47:52;;;;;;;18.03;3.40;;;7.30;97.40;;;;;;5005628;28;20666;-58
2022/02/18 01:50:18;;;;;;;15.67;4.07;;;7.30;97.70;;;;;;5005639;28;20417;-58
2022/02/18 01:52:47;;;;;;;12.43;2.80;;;7.30;97.80;;;;;;5002780;28;20614;-58
2022/02/18 01:55:14;;;;;;;13.23;3.47;;;7.20;98.10;;;;;;5003754;28;20258;-58
2022/02/18 01:57:44;;;;;;;16.03;3.43;;;7.10;98.40;;;;;;5016447;28;20422;-58
2022/02/18 02:00:11;;;;;;;10.00;3.73;;;7.10;98.30;;;;;;5005827;28;20474;-57
2022/02/18 02:02:37;;;;;;;15.20;3.80;;;7.00;98.30;;;;;;5005370;28;20435;-57
2022/02/18 02:05:05;;;;;;;20.63;4.50;;;7.00;98.40;;;;;;5009049;28;20465;-57
2022/02/18 02:07:32;;;;;;;7.97;3.10;;;6.90;98.60;;;;;;5004424;28;20173;-57
2022/02/18 02:09:58;;;;;;;19.40;3.60;;;6.90;98.50;;;;;;4997484;28;20462;-57
2022/02/18 02:12:24;;;;;;;13.03;3.93;;;6.70;98.80;;;;;;5007140;28;21012;-57
2022/02/18 02:14:49;;;;;;;12.40;3.50;;;6.70;99.10;;;;;;5006092;28;20177;-58
2022/02/18 02:17:15;;;;;;;23.03;3.73;;;6.60;99.60;;;;;;5001232;28;20176;-56
2022/02/18 02:19:41;;;;;;;20.80;4.50;;;6.60;99.90;;;;;;5006211;28;20267;-57
2022/02/18 02:22:08;;;;;;;19.13;3.70;;;6.60;99.80;;;;;;5013856;28;20546;-57
2022/02/18 02:24:33;;;;;;;11.47;3.60;;;6.50;99.90;;;;;;5006254;28;20259;-58
2022/02/18 02:26:59;;;;;;;14.83;3.23;;;6.40;99.90;;;;;;5006390;28;20451;-57
2022/02/18 02:29:24;;;;;;;14.17;3.90;;;6.30;99.90;;;;;;5009421;28;20211;-57
2022/02/18 02:31:50;;;;;;;10.40;3.27;;;6.30;99.90;;;;;;5011965;28;20262;-57
2022/02/18 02:34:16;;;;;;;13.60;3.90;;;6.20;99.90;;;;;;5011698;28;20270;-57
2022/02/18 02:36:43;;;;;;;15.93;3.27;;;6.10;99.90;;;;;;5007294;28;20181;-57
2022/02/18 02:39:10;;;;;;;17.90;3.53;;;6.10;99.90;;;;;;5012479;28;20180;-57
2022/02/18 02:41:36;;;;;;;19.93;3.10;;;6.00;99.90;;;;;;5032311;23;20612;-59
2022/02/18 02:44:02;;;;;;;15.80;3.60;;;5.90;99.90;;;;;;5019050;28;20986;-59
2022/02/18 02:46:27;;;;;;;10.43;3.10;;;5.90;99.90;;;;;;5009059;28;20165;-59
2022/02/18 02:48:53;;;;;;;16.00;3.27;;;5.90;99.90;;;;;;5001673;28;20423;-59
2022/02/18 02:51:19;;;;;;;18.67;3.93;;;5.80;99.90;;;;;;5008941;28;20231;-59
2022/02/18 02:53:44;;;;;;;21.90;4.17;;;5.80;99.90;;;;;;5021554;28;20268;-59
2022/02/18 02:56:10;;;;;;;10.83;3.60;;;5.70;99.90;;;;;;5018009;28;20231;-59
2022/02/18 02:58:37;;;;;;;21.37;3.60;;;5.70;99.90;;;;;;5009643;28;20176;-59
2022/02/18 03:01:04;;;;;;;21.53;4.03;;;5.80;99.90;;;;;;5009307;28;20180;-59
2022/02/18 03:03:29;;;;;;;7.50;3.53;;;5.80;99.90;;;;;;5011713;28;20854;-59
2022/02/18 03:05:55;;;;;;;15.40;3.90;;;5.80;99.90;;;;;;5015550;28;20487;-58
2022/02/18 03:08:21;;;;;;;19.63;3.70;;;5.70;99.90;;;;;;5010369;28;20197;-59
2022/02/18 03:11:14;;;;;;;20.10;3.37;;;5.70;99.90;;;;;;5011637;28;20686;-58
2022/02/18 03:13:32;;;;;;;12.03;3.20;;;5.70;99.90;;;;;;5010770;28;20184;-59
2022/02/18 03:15:58;;;;;;;18.00;3.53;;;5.70;99.90;;;;;;5009916;28;20438;-59
2022/02/18 03:18:23;;;;;;;11.03;3.50;;;5.70;99.90;;;;;;5004490;28;20187;-60
2022/02/18 03:20:49;;;;;;;15.93;4.00;;;5.70;99.90;;;;;;5007919;28;20188;-59
2022/02/18 03:23:15;;;;;;;24.40;4.20;;;5.70;99.90;;;;;;5010574;28;20631;-59
2022/02/18 03:25:41;;;;;;;14.93;3.60;;;5.70;99.90;;;;;;5008188;28;20199;-59
2022/02/18 03:28:06;;;;;;;13.30;3.40;;;5.80;99.90;;;;;;5002457;28;20431;-59
2022/02/18 03:30:32;;;;;;;14.63;3.93;;;5.80;99.90;;;;;;5009875;28;20656;-59
2022/02/18 03:32:57;;;;;;;9.43;2.40;;;5.80;99.90;;;;;;5006343;28;20842;-58
2022/02/18 03:35:23;;;;;;;18.27;3.97;;;5.90;99.90;;;;;;5009487;28;20231;-59
2022/02/18 03:37:49;;;;;;;15.73;4.00;;;5.90;99.90;;;;;;5019443;28;20636;-59
2022/02/18 03:40:14;;;;;;;14.10;3.33;;;5.90;99.90;;;;;;4992496;28;20184;-59
2022/02/18 03:42:40;;;;;;;18.63;3.60;;;5.90;99.90;;;;;;5019976;28;20227;-59
2022/02/18 03:45:06;;;;;;;15.63;2.80;;;5.90;99.90;;;;;;5012038;28;20259;-59
2022/02/18 03:47:33;;;;;;;19.37;3.47;;;5.90;99.90;;;;;;5008029;28;20263;-58
2022/02/18 03:49:58;;;;;;;15.57;3.83;;;5.90;99.90;;;;;;5004665;28;20443;-59
2022/02/18 03:52:24;;;;;;;14.30;2.90;;;5.90;99.90;;;;;;5010206;28;20447;-59
2022/02/18 03:54:50;;;;;;;20.67;4.10;;;5.90;99.90;;;;;;5010566;28;20172;-59
2022/02/18 03:57:15;;;;;;;24.30;4.17;;;6.00;99.90;;;;;;5012035;28;20286;-59
2022/02/18 03:59:41;;;;;;;22.70;3.80;;;6.00;99.90;;;;;;5008601;28;20180;-59
2022/02/18 04:02:07;;;;;;;16.20;3.70;;;6.00;99.90;;;;;;5009536;28;20204;-59
2022/02/18 04:04:33;;;;;;;11.40;3.03;;;5.90;99.90;;;;;;5009125;28;20199;-59
2022/02/18 04:06:58;;;;;;;13.37;4.20;;;5.90;99.90;;;;;;5007386;28;20180;-60
2022/02/18 04:09:24;;;;;;;16.17;3.40;;;5.90;99.90;;;;;;5009097;28;20195;-60
2022/02/18 04:11:49;;;;;;;15.77;3.40;;;5.90;99.90;;;;;;5010003;28;20358;-59
2022/02/18 04:14:15;;;;;;;14.80;3.77;;;5.80;99.90;;;;;;5005310;28;20177;-59
2022/02/18 04:16:41;;;;;;;11.60;2.87;;;5.80;99.90;;;;;;5009546;28;20188;-59
2022/02/18 04:19:07;;;;;;;15.03;4.00;;;5.70;99.90;;;;;;5017067;28;20203;-59
2022/02/18 04:21:33;;;;;;;21.13;5.30;;;5.60;99.90;;;;;;5015755;28;20724;-59
2022/02/18 04:23:59;;;;;;;21.17;4.60;;;5.60;99.90;;;;;;5005161;28;20960;-60
2022/02/18 04:26:25;;;;;;;9.07;4.20;;;5.50;99.90;;;;;;5008505;28;20412;-60
2022/02/18 04:28:50;;;;;;;20.97;5.37;;;5.50;99.90;;;;;;5009067;28;20180;-60
2022/02/18 04:31:16;;;;;;;17.70;4.40;;;5.50;99.90;;;;;;5008397;28;20262;-60
2022/02/18 04:33:42;;;;;;;19.60;4.40;;;5.40;99.90;;;;;;5000806;28;20184;-60
2022/02/18 04:36:07;;;;;;;18.40;4.53;;;5.40;99.90;;;;;;5005938;28;20255;-59
2022/02/18 04:38:33;;;;;;;15.17;5.47;;;5.40;99.90;;;;;;5009029;28;20168;-60
2022/02/18 04:40:59;;;;;;;12.10;4.03;;;5.30;99.90;;;;;;5009144;28;20180;-60
2022/02/18 04:43:25;;;;;;;16.27;4.43;;;5.20;99.90;;;;;;5015121;28;20192;-59
2022/02/18 04:45:51;;;;;;;19.13;3.60;;;5.20;99.90;;;;;;5005005;28;20613;-59
2022/02/18 04:48:16;;;;;;;11.70;3.83;;;5.20;99.90;;;;;;5007398;28;20523;-59
2022/02/18 04:50:42;;;;;;;23.37;4.00;;;5.20;99.90;;;;;;5005062;28;20267;-59
2022/02/18 04:53:08;;;;;;;15.40;3.47;;;5.20;99.90;;;;;;5003122;28;20600;-60
2022/02/18 04:55:34;;;;;;;10.17;4.33;;;5.20;99.90;;;;;;5007160;28;20185;-60
2022/02/18 04:57:59;;;;;;;14.53;4.03;;;5.20;99.90;;;;;;5005537;28;20181;-60
2022/02/18 05:00:25;;;;;;;11.43;3.97;;;5.30;99.90;;;;;;5000042;28;21151;-59
2022/02/18 05:02:52;;;;;;;13.53;3.30;;;5.30;99.90;;;;;;5020706;28;20204;-59
2022/02/18 05:05:18;;;;;;;17.80;3.70;;;5.30;99.90;;;;;;4998935;28;20200;-56
2022/02/18 05:07:44;;;;;;;17.07;4.60;;;5.30;99.90;;;;;;5001980;28;20994;-59
2022/02/18 05:10:09;;;;;;;20.97;6.07;;;5.30;99.90;;;;;;5005047;28;20806;-59
2022/02/18 05:12:35;;;;;;;17.30;4.17;;;5.30;99.90;;;;;;5002729;28;20207;-62
2022/02/18 05:15:01;;;;;;;12.07;2.90;;;5.40;99.90;;;;;;5006077;28;20180;-61
2022/02/18 05:17:27;;;;;;;9.73;3.33;;;5.40;99.90;;;;;;5001084;28;20192;-61
2022/02/18 05:19:52;;;;;;;11.83;3.93;;;5.40;99.90;;;;;;4998181;28;20192;-61
2022/02/18 05:22:18;;;;;;;8.40;3.10;;;5.40;99.90;;;;;;4998340;28;20213;-61
2022/02/18 05:24:44;;;;;;;12.83;3.30;;;5.40;99.90;;;;;;5001013;28;20204;-61
2022/02/18 05:27:09;;;;;;;13.40;3.70;;;5.40;99.90;;;;;;5005713;28;20177;-61
2022/02/18 05:29:35;;;;;;;21.17;4.83;;;5.40;99.90;;;;;;5015020;28;20176;-61
2022/02/18 05:32:01;;;;;;;17.37;5.00;;;5.40;99.90;;;;;;5005944;28;20200;-61
2022/02/18 05:34:28;;;;;;;23.07;7.97;;;5.40;99.90;;;;;;5005653;28;20184;-61
2022/02/18 05:36:53;;;;;;;26.57;9.03;;;5.40;99.90;;;;;;4999364;28;20450;-61
2022/02/18 05:39:19;;;;;;;23.70;10.03;;;5.40;99.90;;;;;;5002255;28;20435;-60
2022/02/18 05:41:45;;;;;;;35.80;9.80;;;5.40;99.90;;;;;;5002027;28;20220;-60
2022/02/18 05:44:10;;;;;;;25.30;8.43;;;5.40;99.90;;;;;;5003155;28;20211;-60
2022/02/18 05:46:36;;;;;;;18.57;5.90;;;5.40;99.90;;;;;;5000351;28;20492;-60
2022/02/18 05:49:02;;;;;;;18.53;5.80;;;5.40;99.90;;;;;;5000390;28;20273;-60
2022/02/18 05:51:27;;;;;;;18.67;6.27;;;5.50;99.90;;;;;;5003687;28;20283;-61
2022/02/18 05:53:53;;;;;;;18.73;5.17;;;5.50;99.90;;;;;;5002486;28;20192;-59
2022/02/18 05:56:19;;;;;;;17.07;4.57;;;5.50;99.90;;;;;;5017134;28;20230;-61
2022/02/18 05:58:46;;;;;;;21.70;5.27;;;5.50;99.90;;;;;;4998451;28;20184;-61
2022/02/18 06:01:11;;;;;;;22.87;5.17;;;5.50;99.90;;;;;;5001235;28;20250;-60
2022/02/18 06:03:37;;;;;;;23.63;5.27;;;5.50;99.90;;;;;;5007164;28;20455;-60
2022/02/18 06:06:03;;;;;;;14.00;5.13;;;5.50;99.90;;;;;;5008247;28;20203;-60
2022/02/18 06:08:29;;;;;;;22.07;5.20;;;5.50;99.90;;;;;;5004182;28;20181;-60
2022/02/18 06:10:55;;;;;;;20.83;6.03;;;5.50;99.90;;;;;;5009355;28;20969;-61
2022/02/18 06:13:21;;;;;;;15.20;5.57;;;5.40;99.90;;;;;;5023776;28;20176;-60
2022/02/18 06:15:46;;;;;;;22.43;4.60;;;5.40;99.90;;;;;;5005050;28;20177;-61
2022/02/18 06:18:12;;;;;;;23.03;4.70;;;5.40;99.90;;;;;;5008325;28;20264;-61
2022/02/18 06:20:38;;;;;;;17.43;5.53;;;5.40;99.90;;;;;;5014775;28;20184;-61
2022/02/18 06:23:03;;;;;;;22.40;6.53;;;5.30;99.90;;;;;;5014480;28;20208;-60
2022/02/18 06:25:29;;;;;;;13.00;5.47;;;5.30;99.90;;;;;;5011438;28;20335;-60
2022/02/18 06:28:10;;;;;;;15.43;6.47;;;5.40;99.90;;;;;;5005204;28;20188;-61
2022/02/18 06:30:37;;;;;;;15.50;6.37;;;5.40;99.90;;;;;;5016426;28;20181;-60
2022/02/18 06:33:05;;;;;;;18.50;5.60;;;5.40;99.90;;;;;;5008785;28;20462;-60
2022/02/18 06:35:31;;;;;;;21.10;6.73;;;5.40;99.90;;;;;;5014741;28;20902;-60
2022/02/18 06:37:56;;;;;;;21.83;5.50;;;5.40;99.90;;;;;;5006348;28;20510;-59
2022/02/18 06:40:22;;;;;;;17.53;5.00;;;5.40;99.90;;;;;;5008220;28;20307;-60
2022/02/18 06:42:48;;;;;;;15.17;4.77;;;5.40;99.90;;;;;;5007603;28;20701;-61
2022/02/18 06:45:17;;;;;;;18.10;4.83;;;5.40;99.90;;;;;;5004040;28;20196;-60
2022/02/18 06:47:45;;;;;;;24.63;4.50;;;5.40;99.90;;;;;;5010780;28;20279;-60
2022/02/18 06:50:10;;;;;;;19.20;4.40;;;5.40;99.90;;;;;;5009343;28;20758;-60
2022/02/18 06:52:37;;;;;;;20.43;5.10;;;5.40;99.90;;;;;;5010025;28;20444;-60
2022/02/18 06:55:03;;;;;;;21.97;4.10;;;5.40;99.90;;;;;;5011134;28;20207;-58
2022/02/18 06:57:28;;;;;;;22.97;3.90;;;5.50;99.90;;;;;;5008411;28;21276;-60
2022/02/18 06:59:54;;;;;;;16.60;4.90;;;5.50;99.90;;;;;;5000715;28;20516;-60
2022/02/18 07:02:20;;;;;;;19.63;4.10;;;5.50;99.90;;;;;;5009561;28;20339;-60
2022/02/18 07:04:45;;;;;;;19.20;4.43;;;5.50;99.90;;;;;;5028356;28;20236;-60
2022/02/18 07:07:11;;;;;;;24.73;4.30;;;5.60;99.90;;;;;;5015504;28;20225;-60
2022/02/18 07:09:36;;;;;;;14.33;4.60;;;5.60;99.90;;;;;;5004964;28;20195;-60
2022/02/18 07:12:02;;;;;;;14.57;4.27;;;5.60;99.90;;;;;;5009287;28;20230;-60
2022/02/18 07:14:28;;;;;;;21.80;5.17;;;5.60;99.90;;;;;;5004297;28;20184;-60
2022/02/18 07:16:55;;;;;;;22.30;6.07;;;5.70;99.90;;;;;;5009287;28;20534;-58
2022/02/18 07:19:21;;;;;;;10.53;5.00;;;5.70;99.90;;;;;;5010133;28;20189;-61
2022/02/18 07:21:46;;;;;;;19.10;5.87;;;5.80;99.90;;;;;;5013651;28;20994;-61
2022/02/18 07:24:12;;;;;;;17.43;6.50;;;5.80;99.90;;;;;;5005419;28;20196;-61
2022/02/18 07:26:39;;;;;;;22.50;8.10;;;5.80;99.90;;;;;;5011114;28;20189;-61
2022/02/18 07:29:05;;;;;;;26.57;8.07;;;5.90;99.90;;;;;;5010695;28;21049;-61
2022/02/18 07:31:31;;;;;;;19.83;6.90;;;6.00;99.90;;;;;;5010996;28;20432;-61
2022/02/18 07:33:57;;;;;;;24.50;7.63;;;6.00;99.90;;;;;;5007982;28;20436;-61
2022/02/18 07:36:23;;;;;;;19.57;5.90;;;6.10;99.90;;;;;;5012271;28;20420;-61
2022/02/18 07:38:48;;;;;;;15.53;5.10;;;6.10;99.90;;;;;;5004740;28;20279;-61
2022/02/18 07:41:14;;;;;;;19.20;4.57;;;6.20;99.90;;;;;;5011609;28;20983;-64
2022/02/18 07:43:41;;;;;;;21.13;5.17;;;6.20;99.90;;;;;;5008646;28;20271;-61
2022/02/18 07:46:07;;;;;;;25.67;6.87;;;6.30;99.90;;;;;;5004835;28;20176;-61
2022/02/18 07:48:33;;;;;;;17.13;6.27;;;6.30;99.90;;;;;;5010253;28;20966;-61
2022/02/18 07:50:59;;;;;;;22.23;5.70;;;6.40;99.90;;;;;;5005701;28;20424;-61
2022/02/18 07:53:24;;;;;;;19.93;5.20;;;6.40;99.90;;;;;;5000011;28;20663;-61
2022/02/18 07:55:51;;;;;;;22.90;5.80;;;6.40;99.90;;;;;;5008891;28;20480;-61
2022/02/18 07:58:17;;;;;;;17.90;5.30;;;6.50;99.90;;;;;;4994831;28;20549;-61
2022/02/18 08:00:42;;;;;;;16.97;4.50;;;6.50;99.90;;;;;;5000462;28;20461;-60
2022/02/18 08:03:08;;;;;;;16.10;5.30;;;6.60;99.90;;;;;;5008404;28;20606;-61
2022/02/18 08:05:34;;;;;;;13.43;4.90;;;6.60;99.90;;;;;;5010244;28;20214;-61
2022/02/18 08:08:01;;;;;;;11.80;4.67;;;6.70;99.90;;;;;;5023626;28;20610;-61
2022/02/18 08:10:27;;;;;;;24.33;5.93;;;6.80;99.90;;;;;;5010109;28;20519;-61
2022/02/18 08:12:53;;;;;;;16.27;4.73;;;6.90;99.90;;;;;;5011938;28;20500;-61
2022/02/18 08:15:19;;;;;;;14.50;4.33;;;7.00;99.90;;;;;;5006660;28;20927;-61
2022/02/18 08:17:45;;;;;;;9.07;3.40;;;7.10;99.90;;;;;;4999754;28;20183;-61
2022/02/18 08:20:11;;;;;;;16.30;4.13;;;7.20;99.90;;;;;;5001406;28;20455;-61
2022/02/18 08:22:38;;;;;;;12.80;3.40;;;7.30;99.90;;;;;;5013551;28;20431;-61
2022/02/18 08:25:05;;;;;;;6.90;3.17;;;7.40;99.90;;;;;;5005310;28;20463;-60
2022/02/18 08:27:31;;;;;;;13.13;2.90;;;7.50;99.90;;;;;;5010544;28;20757;-60
2022/02/18 08:29:57;;;;;;;10.37;2.77;;;7.60;99.90;;;;;;4995350;28;20428;-60
2022/02/18 08:32:23;;;;;;;10.33;2.60;;;7.60;99.90;;;;;;4990267;28;20185;-61
2022/02/18 08:34:49;;;;;;;15.43;3.53;;;7.70;99.90;;;;;;5004210;28;20416;-61
2022/02/18 08:37:14;;;;;;;9.90;2.93;;;7.80;99.90;;;;;;5002220;28;20477;-61
2022/02/18 08:39:40;;;;;;;13.83;3.17;;;7.90;99.90;;;;;;5004997;28;20396;-61
2022/02/18 08:42:07;;;;;;;7.67;3.07;;;7.90;99.90;;;;;;5032793;22;20619;-60
2022/02/18 08:44:33;;;;;;;8.20;2.90;;;8.00;99.90;;;;;;5008514;28;20204;-56
2022/02/18 08:46:59;;;;;;;6.20;2.60;;;8.10;99.90;;;;;;5007966;28;20473;-58
2022/02/18 08:49:24;;;;;;;10.33;2.77;;;8.20;99.90;;;;;;5004391;28;20423;-62
2022/02/18 08:51:51;;;;;;;15.13;2.47;;;8.30;99.90;;;;;;5003900;28;20443;-61
2022/02/18 08:54:16;;;;;;;10.37;3.00;;;8.30;99.90;;;;;;4982719;28;20180;-61
2022/02/18 08:56:43;;;;;;;16.10;3.07;;;8.40;99.50;;;;;;4978031;28;20534;-60
2022/02/18 08:59:09;;;;;;;8.30;2.77;;;8.40;99.10;;;;;;4985756;28;20185;-59
2022/02/18 09:01:35;;;;;;;9.20;2.80;;;8.50;98.30;;;;;;4984293;28;20470;-61
2022/02/18 09:04:00;;;;;;;11.33;2.87;;;8.50;98.60;;;;;;4990279;28;20224;-61
2022/02/18 09:06:26;;;;;;;13.33;2.73;;;8.60;98.20;;;;;;4994864;28;20657;-62
2022/02/18 09:08:52;;;;;;;13.80;3.60;;;8.70;97.50;;;;;;4985693;28;20690;-62
2022/02/18 09:11:18;;;;;;;5.63;2.23;;;8.80;96.80;;;;;;4987334;28;20252;-61
2022/02/18 09:13:44;;;;;;;5.67;2.63;;;9.00;96.60;;;;;;4986886;28;20171;-62
2022/02/18 09:16:10;;;;;;;5.23;2.40;;;9.10;95.40;;;;;;4983970;28;20425;-61
2022/02/18 09:18:37;;;;;;;5.80;2.33;;;9.30;93.20;;;;;;4982443;28;20177;-61
2022/02/18 09:21:02;;;;;;;8.90;2.50;;;9.40;92.90;;;;;;4994695;28;20434;-60
2022/02/18 09:23:28;;;;;;;4.40;2.27;;;9.50;92.40;;;;;;5008957;28;20448;-61
2022/02/18 09:25:54;;;;;;;10.47;2.20;;;9.50;92.70;;;;;;4984948;28;20166;-60
2022/02/18 09:28:20;;;;;;;10.43;2.50;;;9.60;91.60;;;;;;4984906;28;20553;-64
2022/02/18 09:30:47;;;;;;;6.70;2.40;;;9.70;92.10;;;;;;4985595;28;20200;-59
2022/02/18 09:33:14;;;;;;;6.50;2.60;;;9.80;92.30;;;;;;4985594;28;20203;-61
2022/02/18 09:35:41;;;;;;;4.67;2.30;;;10.10;93.10;;;;;;4984871;28;20464;-60
2022/02/18 09:38:07;;;;;;;4.63;1.97;;;10.30;92.10;;;;;;4987298;28;20481;-60
2022/02/18 09:40:35;;;;;;;8.60;1.97;;;10.60;85.70;;;;;;5014463;28;20444;-60
2022/02/18 09:43:01;;;;;;;5.20;1.87;;;10.70;80.20;;;;;;5008235;28;21483;-60
2022/02/18 09:45:27;;;;;;;3.60;1.83;;;10.90;78.20;;;;;;4989340;28;20459;-61
2022/02/18 09:47:54;;;;;;;7.70;1.67;;;11.20;77.20;;;;;;4987013;28;20435;-61
2022/02/18 09:50:20;;;;;;;5.10;1.53;;;11.40;74.60;;;;;;4988998;28;20412;-62
2022/02/18 09:52:46;;;;;;;5.13;1.83;;;11.60;71.70;;;;;;4989389;28;20467;-60
2022/02/18 09:55:12;;;;;;;5.63;1.57;;;11.80;70.30;;;;;;4986806;28;20191;-62
2022/02/18 09:57:42;;;;;;;4.43;1.70;;;11.80;68.70;;;;;;4986086;28;20475;-58
2022/02/18 10:00:09;;;;;;;5.80;1.40;;;11.90;68.70;;;;;;5001258;28;20822;-61
2022/02/18 10:02:35;;;;;;;5.57;2.00;;;12.00;68.20;;;;;;4994067;28;20461;-62
2022/02/18 10:05:01;;;;;;;2.50;1.50;;;12.10;66.70;;;;;;4985562;28;20456;-61
2022/02/18 10:07:29;;;;;;;4.30;1.37;;;12.10;66.60;;;;;;4993963;28;20432;-63
2022/02/18 10:09:55;;;;;;;6.17;1.80;;;12.10;66.40;;;;;;4997999;28;20270;-64
2022/02/18 10:12:38;;;;;;;3.33;1.70;;;12.10;66.60;;;;;;5001727;28;20483;-62
2022/02/18 10:15:12;;;;;;;6.07;2.00;;;12.20;66.80;;;;;;4987881;28;20548;-62
2022/02/18 10:17:41;;;;;;;1.60;1.20;;;12.40;67.00;;;;;;4989998;28;20504;-60
2022/02/18 10:20:24;;;;;;;3.83;1.47;;;12.40;66.00;;;;;;4985305;28;20591;-59
2022/02/18 10:23:00;;;;;;;3.60;1.90;;;12.30;65.90;;;;;;4991887;28;20444;-64
2022/02/18 10:25:29;;;;;;;4.33;1.60;;;12.20;66.30;;;;;;4986697;28;20991;-62
2022/02/18 10:27:55;;;;;;;5.20;1.80;;;12.10;67.00;;;;;;4989553;28;20546;-59
2022/02/18 10:30:22;;;;;;;6.70;1.90;;;12.00;67.40;;;;;;4986181;28;20416;-60
2022/02/18 10:32:53;;;;;;;2.93;1.67;;;12.00;68.20;;;;;;4987901;28;20937;-59
2022/02/18 10:35:22;;;;;;;4.90;1.30;;;12.00;68.60;;;;;;4976665;28;20443;-60
2022/02/18 10:37:54;;;;;;;2.80;1.50;;;12.00;68.60;;;;;;4989679;28;20458;-61
2022/02/18 10:40:21;;;;;;;5.47;1.87;;;12.00;68.50;;;;;;4978019;28;20783;-60
2022/02/18 10:42:50;;;;;;;8.93;1.43;;;12.00;68.80;;;;;;4988007;28;20546;-60
2022/02/18 10:45:18;;;;;;;2.20;1.33;;;11.90;68.80;;;;;;4988043;28;21046;-60
2022/02/18 10:47:45;;;;;;;2.90;1.30;;;11.90;69.80;;;;;;4981150;28;20428;-60
2022/02/18 10:50:17;;;;;;;5.20;1.90;;;11.90;69.70;;;;;;4986170;28;20843;-60
2022/02/18 10:52:43;;;;;;;5.60;1.97;;;11.90;70.10;;;;;;4987516;28;20535;-63
2022/02/18 10:55:09;;;;;;;12.33;1.90;;;11.90;69.90;;;;;;4985093;28;20528;-61
2022/02/18 10:57:35;;;;;;;3.27;1.60;;;11.90;69.80;;;;;;4984968;28;20444;-62
2022/02/18 11:00:13;;;;;;;2.50;1.50;;;12.00;69.40;;;;;;4986569;28;20462;-60
2022/02/18 11:02:50;;;;;;;4.87;2.13;;;11.90;69.40;;;;;;4992773;28;20482;-61
2022/02/18 11:05:19;;;;;;;3.20;1.87;;;11.90;69.90;;;;;;4980875;28;20498;-60
2022/02/18 11:07:46;;;;;;;5.37;1.90;;;11.90;69.50;;;;;;4987453;28;20417;-63
2022/02/18 11:10:33;;;;;;;6.57;2.07;;;11.90;70.00;;;;;;4985885;28;20779;-60
2022/02/18 11:12:59;;;;;;;8.13;2.07;;;11.90;70.30;;;;;;4996191;28;20803;-62
2022/02/18 11:15:27;;;;;;;5.00;2.03;;;11.90;70.80;;;;;;4990421;28;20466;-58
2022/02/18 11:17:54;;;;;;;5.47;1.97;;;12.00;71.20;;;;;;4978474;28;20682;-58
2022/02/18 11:20:20;;;;;;;2.50;1.70;;;12.10;70.70;;;;;;4989762;28;20447;-61
2022/02/18 11:22:46;;;;;;;7.23;1.87;;;12.20;70.50;;;;;;4979985;28;20989;-59
2022/02/18 11:25:11;;;;;;;7.93;2.20;;;12.30;69.70;;;;;;4983294;28;20497;-63
2022/02/18 11:27:38;;;;;;;6.60;2.10;;;12.40;69.30;;;;;;4981850;28;20174;-60
2022/02/18 11:30:05;;;;;;;4.70;1.70;;;12.50;69.40;;;;;;4972739;28;20344;-61
2022/02/18 11:32:54;;;;;;;9.83;2.10;;;12.70;68.90;;;;;;4985317;28;20484;-61
2022/02/18 11:35:53;;;;;;;7.63;2.63;;;12.70;67.70;;;;;;5008360;28;20844;-60
2022/02/18 11:38:37;;;;;;;8.90;2.10;;;12.70;67.30;;;;;;4982370;28;20432;-59
2022/02/18 11:41:21;;;;;;;2.13;1.60;;;12.70;66.90;;;;;;5003276;28;20432;-60
2022/02/18 11:43:49;;;;;;;5.90;2.30;;;12.70;67.20;;;;;;4989439;28;20526;-61
2022/02/18 11:46:23;;;;;;;7.57;3.40;;;12.70;67.90;;;;;;4984726;28;20600;-59
2022/02/18 11:48:50;;;;;;;6.93;2.40;;;12.70;67.40;;;;;;4993304;28;20511;-59
2022/02/18 11:51:21;;;;;;;8.97;2.53;;;12.80;67.40;;;;;;4991268;28;20494;-61
2022/02/18 11:53:50;;;;;;;3.70;2.20;;;12.90;66.80;;;;;;4987505;28;20486;-61
2022/02/18 11:56:39;;;;;;;7.27;2.20;;;12.90;66.40;;;;;;4983283;28;20478;-60
2022/02/18 11:59:05;;;;;;;9.13;1.93;;;13.00;66.30;;;;;;4978287;28;20460;-59
2022/02/18 12:01:48;;;;;;;4.00;1.57;;;13.20;65.60;;;;;;4982653;28;20464;-60
2022/02/18 12:04:15;;;;;;;6.23;2.00;;;13.50;64.70;;;;;;4985459;28;20248;-60
2022/02/18 12:06:40;;;;;;;7.30;2.40;;;13.50;63.30;;;;;;4997792;28;20444;-61
2022/02/18 12:09:06;;;;;;;13.00;2.30;;;13.60;63.10;;;;;;4986189;28;20447;-60
2022/02/18 12:11:45;;;;;;;5.53;2.10;;;13.80;62.70;;;;;;4984837;28;20173;-60
2022/02/18 12:14:12;;;;;;;3.77;1.97;;;14.20;62.20;;;;;;4987061;28;20201;-60
2022/02/18 12:16:38;;;;;;;8.53;2.33;;;14.50;60.80;;;;;;4985083;28;20451;-60
2022/02/18 12:19:08;;;;;;;10.23;1.87;;;14.50;59.60;;;;;;4984024;28;20459;-59
2022/02/18 12:21:54;;;;;;;9.23;2.53;;;14.50;59.70;;;;;;4983030;28;20435;-59
2022/02/18 12:24:44;;;;;;;8.60;1.70;;;14.40;59.30;;;;;;4981066;28;20983;-59
2022/02/18 12:27:32;;;;;;;6.57;2.10;;;14.30;59.60;;;;;;4984492;28;20429;-59
2022/02/18 12:30:02;;;;;;;3.73;1.80;;;14.10;59.70;;;;;;5000268;28;20443;-59
2022/02/18 12:32:28;;;;;;;3.00;2.10;;;14.10;60.50;;;;;;4989557;28;20462;-58
2022/02/18 12:35:00;;;;;;;9.53;2.67;;;14.00;60.10;;;;;;4985554;28;20825;-59
2022/02/18 12:37:26;;;;;;;15.63;2.50;;;14.00;60.20;;;;;;4980525;28;20431;-58
2022/02/18 12:39:56;;;;;;;7.30;2.13;;;13.90;60.20;;;;;;4981258;28;20425;-56
2022/02/18 12:42:26;;;;;;;9.00;2.10;;;14.00;60.30;;;;;;4975760;28;20212;-60
2022/02/18 12:45:01;;;;;;;12.37;2.97;;;14.10;59.70;;;;;;4983555;28;20539;-59
2022/02/18 12:47:28;;;;;;;9.17;2.13;;;14.20;59.60;;;;;;4978911;28;20435;-59